createdAt,value
2018-09-12T00:02:21.134Z,98553.22
2018-09-12T00:04:50.507Z,98546.45
2018-09-12T00:07:19.894Z,98542.49
2018-09-12T00:09:49.305Z,98543.86
2018-09-12T00:12:18.667Z,98537.91
2018-09-12T00:14:48.031Z,98537.59
2018-09-12T00:17:17.472Z,98540.70
2018-09-12T00:19:46.848Z,98533.05
2018-09-12T00:22:16.214Z,98533.94
2018-09-12T00:24:45.667Z,98536.16
2018-09-12T00:27:15.070Z,98525.43
2018-09-12T00:29:44.443Z,98522.04
2018-09-12T00:32:13.823Z,98519.86
2018-09-12T00:34:43.206Z,98510.87
2018-09-12T00:37:12.566Z,98506.20
2018-09-12T00:39:41.947Z,98512.65
2018-09-12T00:42:11.334Z,98508.58
2018-09-12T00:44:40.715Z,98505.88
2018-09-12T00:47:10.067Z,98506.89
2018-09-12T00:49:39.449Z,98509.80
2018-09-12T00:52:08.819Z,98501.64
2018-09-12T00:54:38.190Z,98504.19
2018-09-12T00:57:07.654Z,98494.34
2018-09-12T00:59:37.227Z,98494.87
2018-09-12T01:02:06.714Z,98485.84
2018-09-12T01:04:36.194Z,98488.50
2018-09-12T01:07:05.588Z,98490.68
2018-09-12T01:09:34.955Z,98495.08
2018-09-12T01:12:04.331Z,98491.77
2018-09-12T01:14:34.173Z,98492.25
2018-09-12T01:17:03.679Z,98485.14
2018-09-12T01:19:33.070Z,98490.34
2018-09-12T01:22:02.461Z,98495.50
2018-09-12T01:24:31.826Z,98488.64
2018-09-12T01:27:01.194Z,98487.36
2018-09-12T01:29:30.593Z,98486.91
2018-09-12T01:31:59.967Z,98487.80
2018-09-12T01:34:29.335Z,98488.28
2018-09-12T01:36:58.710Z,98487.50
2018-09-12T01:39:28.090Z,98487.09
2018-09-12T01:41:57.478Z,98488.93
2018-09-12T01:44:26.861Z,98487.74
2018-09-12T01:46:56.254Z,98492.12
2018-09-12T01:49:25.648Z,98490.86
2018-09-12T01:51:54.999Z,98482.00
2018-09-12T01:54:24.354Z,98480.80
2018-09-12T01:56:53.738Z,98488.50
2018-09-12T01:59:23.113Z,98488.59
2018-09-12T02:01:52.475Z,98476.21
2018-09-12T02:04:21.855Z,98479.28
2018-09-12T02:06:51.238Z,98479.81
2018-09-12T02:09:20.588Z,98485.28
2018-09-12T02:11:49.966Z,98484.02
2018-09-12T02:14:19.342Z,98477.62
2018-09-12T02:16:48.713Z,98481.09
2018-09-12T02:19:18.074Z,98479.84
2018-09-12T02:21:47.459Z,98482.84
2018-09-12T02:24:16.822Z,98484.95
2018-09-12T02:26:46.218Z,98477.70
2018-09-12T02:29:15.599Z,98475.09
2018-09-12T02:31:44.964Z,98473.42
2018-09-12T02:34:14.347Z,98469.63
2018-09-12T02:36:43.749Z,98481.23
2018-09-12T02:39:13.102Z,98481.20
2018-09-12T02:41:42.473Z,98477.34
2018-09-12T02:44:11.940Z,98475.67
2018-09-12T02:46:41.230Z,98474.44
2018-09-12T02:49:10.591Z,98475.34
2018-09-12T02:51:39.975Z,98474.59
2018-09-12T02:54:09.327Z,98475.84
2018-09-12T02:56:38.706Z,98479.30
2018-09-12T02:59:08.093Z,98474.56
2018-09-12T03:01:37.471Z,98478.47
2018-09-12T03:04:28.894Z,98476.01
2018-09-12T03:06:58.290Z,98467.92
2018-09-12T03:09:27.653Z,98473.06
2018-09-12T03:11:57.026Z,98466.28
2018-09-12T03:14:26.435Z,98466.45
2018-09-12T03:16:55.810Z,98461.70
2018-09-12T03:19:25.182Z,98459.54
2018-09-12T03:21:54.566Z,98459.97
2018-09-12T03:24:23.997Z,98454.84
2018-09-12T03:26:53.374Z,98456.53
2018-09-12T03:29:22.746Z,98452.70
2018-09-12T03:31:52.115Z,98453.50
2018-09-12T03:34:21.582Z,98446.28
2018-09-12T03:36:51.099Z,98449.26
2018-09-12T03:39:20.467Z,98444.55
2018-09-12T03:41:49.842Z,98421.48
2018-09-12T03:44:19.215Z,98443.19
2018-09-12T03:46:49.214Z,98451.77
2018-09-12T03:49:18.618Z,98441.91
2018-09-12T03:51:47.970Z,98438.46
2018-09-12T03:54:17.383Z,98433.82
2018-09-12T03:56:46.754Z,98436.88
2018-09-12T03:59:16.118Z,98433.90
2018-09-12T04:01:45.504Z,98431.43
2018-09-12T04:04:14.879Z,98429.34
2018-09-12T04:06:44.339Z,98431.14
2018-09-12T04:09:13.724Z,98423.45
2018-09-12T04:11:43.119Z,98427.29
2018-09-12T04:14:12.487Z,98432.89
2018-09-12T04:16:41.922Z,98424.31
2018-09-12T04:19:11.354Z,98423.07
2018-09-12T04:21:40.731Z,98425.66
2018-09-12T04:24:10.225Z,98419.67
2018-09-12T04:26:39.551Z,98419.19
2018-09-12T04:29:08.918Z,98425.64
2018-09-12T04:31:38.302Z,98426.55
2018-09-12T04:34:07.770Z,98425.27
2018-09-12T04:36:37.150Z,98429.98
2018-09-12T04:39:09.555Z,98441.55
2018-09-12T04:41:38.927Z,98439.88
2018-09-12T04:44:08.311Z,98439.03
2018-09-12T04:46:37.801Z,98449.75
2018-09-12T04:49:07.507Z,98451.06
2018-09-12T04:51:36.892Z,98448.92
2018-09-12T04:54:09.414Z,98443.35
2018-09-12T04:56:38.790Z,98448.07
2018-09-12T04:59:08.170Z,98451.47
2018-09-12T05:01:37.554Z,98446.75
2018-09-12T05:04:06.967Z,98442.08
2018-09-12T05:06:36.351Z,98450.22
2018-09-12T05:09:09.087Z,98446.80
2018-09-12T05:11:38.458Z,98452.36
2018-09-12T05:14:07.834Z,98448.50
2018-09-12T05:16:37.312Z,98452.36
2018-09-12T05:19:06.660Z,98452.77
2018-09-12T05:21:36.080Z,98454.89
2018-09-12T05:24:05.466Z,98455.77
2018-09-12T05:26:34.889Z,98457.48
2018-09-12T05:29:04.289Z,98454.45
2018-09-12T05:31:33.762Z,98450.16
2018-09-12T05:34:03.140Z,98453.95
2018-09-12T05:36:32.523Z,98447.98
2018-09-12T05:39:01.916Z,98443.21
2018-09-12T05:41:31.303Z,98446.56
2018-09-12T05:44:00.694Z,98450.38
2018-09-12T05:46:30.070Z,98450.73
2018-09-12T05:48:59.446Z,98451.09
2018-09-12T05:51:28.825Z,98455.77
2018-09-12T05:53:58.210Z,98451.06
2018-09-12T05:56:27.585Z,98453.60
2018-09-12T05:58:57.251Z,98446.70
2018-09-12T06:01:26.678Z,98451.78
2018-09-12T06:03:56.061Z,98450.02
2018-09-12T06:06:25.469Z,98455.91
2018-09-12T06:08:54.822Z,98452.37
2018-09-12T06:11:24.273Z,98453.59
2018-09-12T06:13:53.870Z,98452.69
2018-09-12T06:16:23.278Z,98452.11
2018-09-12T06:18:52.654Z,98446.48
2018-09-12T06:21:22.055Z,98449.81
2018-09-12T06:23:51.418Z,98443.20
2018-09-12T06:26:20.812Z,98445.58
2018-09-12T06:28:50.206Z,98448.33
2018-09-12T06:31:19.635Z,98439.21
2018-09-12T06:33:49.007Z,98433.03
2018-09-12T06:36:18.382Z,98435.86
2018-09-12T06:38:47.857Z,98434.00
2018-09-12T06:41:17.182Z,98435.70
2018-09-12T06:43:46.550Z,98433.27
2018-09-12T06:46:15.930Z,98440.36
2018-09-12T06:48:45.335Z,98438.81
2018-09-12T06:51:14.751Z,98439.42
2018-09-12T06:53:44.131Z,98443.06
2018-09-12T06:56:14.866Z,98443.77
2018-09-12T06:58:44.255Z,98342.80
2018-09-12T07:01:15.008Z,98438.21
2018-09-12T07:03:44.450Z,98444.95
2018-09-12T07:06:14.828Z,98433.16
2018-09-12T07:08:44.215Z,98430.59
2018-09-12T07:11:14.850Z,98433.34
2018-09-12T07:13:44.231Z,98432.52
2018-09-12T07:16:14.842Z,98438.47
2018-09-12T07:18:44.466Z,98434.11
2018-09-12T07:21:15.383Z,98426.48
2018-09-12T07:23:45.074Z,98430.08
2018-09-12T07:26:15.262Z,98427.36
2018-09-12T07:28:45.006Z,98427.81
2018-09-12T07:31:15.354Z,98430.91
2018-09-12T07:33:45.169Z,98434.29
2018-09-12T07:36:15.278Z,98430.42
2018-09-12T07:38:44.974Z,98425.55
2018-09-12T07:41:15.283Z,98421.94
2018-09-12T07:43:45.062Z,98424.52
2018-09-12T07:46:15.360Z,98423.20
2018-09-12T07:48:45.063Z,98426.44
2018-09-12T07:51:15.431Z,98424.34
2018-09-12T07:53:45.126Z,98415.80
2018-09-12T07:56:15.328Z,98419.15
2018-09-12T07:58:44.854Z,98419.28
2018-09-12T08:01:15.257Z,98419.33
2018-09-12T08:03:44.949Z,98415.14
2018-09-12T08:06:15.305Z,98415.71
2018-09-12T08:08:44.876Z,98416.27
2018-09-12T08:11:15.421Z,98413.84
2018-09-12T08:13:45.131Z,98410.90
2018-09-12T08:16:15.566Z,98413.41
2018-09-12T08:18:44.950Z,98415.78
2018-09-12T08:21:15.230Z,98416.48
2018-09-12T08:23:44.634Z,98413.19
2018-09-12T08:26:15.260Z,98416.39
2018-09-12T08:28:44.631Z,98413.89
2018-09-12T08:31:15.299Z,98412.16
2018-09-12T08:33:44.757Z,98419.98
2018-09-12T08:36:15.415Z,98420.36
2018-09-12T08:38:44.779Z,98420.97
2018-09-12T08:41:15.406Z,98423.32
2018-09-12T08:43:44.818Z,98418.23
2018-09-12T08:46:15.446Z,98418.61
2018-09-12T08:48:44.815Z,98416.88
2018-09-12T08:51:15.447Z,98416.73
2018-09-12T08:53:44.868Z,98420.63
2018-09-12T08:56:15.483Z,98423.94
2018-09-12T08:58:44.843Z,98415.24
2018-09-12T09:01:15.515Z,98405.27
2018-09-12T09:03:44.836Z,98401.67
2018-09-12T09:06:14.215Z,98391.45
2018-09-12T09:08:43.625Z,98384.67
2018-09-12T09:11:12.993Z,98387.13
2018-09-12T09:13:42.362Z,98384.16
2018-09-12T09:16:11.769Z,98388.15
2018-09-12T09:18:41.146Z,98382.11
2018-09-12T09:21:10.511Z,98378.59
2018-09-12T09:23:40.026Z,98384.34
2018-09-12T09:26:09.478Z,98382.56
2018-09-12T09:28:38.862Z,98385.38
2018-09-12T09:31:08.226Z,98377.51
2018-09-12T09:33:37.638Z,98374.31
2018-09-12T09:36:07.058Z,98373.20
2018-09-12T09:38:36.427Z,98380.06
2018-09-12T09:41:05.938Z,98374.95
2018-09-12T09:43:35.283Z,98381.06
2018-09-12T09:46:04.638Z,98382.78
2018-09-12T09:48:34.051Z,98377.36
2018-09-12T09:51:03.569Z,98373.45
2018-09-12T09:53:32.950Z,98378.81
2018-09-12T09:56:02.741Z,98379.96
2018-09-12T09:58:32.180Z,98380.99
2018-09-12T10:01:06.763Z,98378.61
2018-09-12T10:03:42.659Z,98374.80
2018-09-12T10:06:17.166Z,98373.10
2018-09-12T10:08:52.124Z,98366.86
2018-09-12T10:11:21.598Z,98363.42
2018-09-12T10:13:51.438Z,98360.52
2018-09-12T10:16:21.543Z,98359.83
2018-09-12T10:18:50.946Z,98348.77
2018-09-12T10:21:20.428Z,98354.64
2018-09-12T10:23:49.894Z,98354.95
2018-09-12T10:26:19.268Z,98356.77
2018-09-12T10:28:48.646Z,98347.42
2018-09-12T10:31:18.039Z,98356.84
2018-09-12T10:33:47.400Z,98356.78
2018-09-12T10:36:16.802Z,98376.80
2018-09-12T10:38:46.222Z,98354.72
2018-09-12T10:41:16.630Z,98356.69
2018-09-12T10:43:46.039Z,98355.48
2018-09-12T10:46:16.658Z,98355.34
2018-09-12T10:48:46.078Z,98367.16
2018-09-12T10:51:16.681Z,98357.09
2018-09-12T10:53:46.134Z,98352.31
2018-09-12T10:56:16.759Z,98359.75
2018-09-12T10:58:46.262Z,98361.97
2018-09-12T11:01:16.862Z,98374.94
2018-09-12T11:03:46.238Z,98363.03
2018-09-12T11:06:16.835Z,98360.01
2018-09-12T11:08:46.219Z,98374.89
2018-09-12T11:11:16.840Z,98362.55
2018-09-12T11:13:46.263Z,98365.65
2018-09-12T11:16:16.870Z,98377.87
2018-09-12T11:18:46.255Z,98368.81
2018-09-12T11:21:16.910Z,98360.39
2018-09-12T11:23:46.292Z,98363.89
2018-09-12T11:26:16.947Z,98358.10
2018-09-12T11:28:46.396Z,98355.92
2018-09-12T11:31:17.034Z,98357.64
2018-09-12T11:33:46.555Z,98357.81
2018-09-12T11:36:17.252Z,98346.94
2018-09-12T11:38:46.613Z,98357.60
2018-09-12T11:41:17.062Z,98358.69
2018-09-12T11:43:46.428Z,98352.70
2018-09-12T11:46:17.051Z,98355.25
2018-09-12T11:48:46.556Z,98353.25
2018-09-12T11:51:17.158Z,98353.61
2018-09-12T11:53:46.582Z,98347.44
2018-09-12T11:56:17.196Z,98343.12
2018-09-12T11:58:46.563Z,98345.64
2018-09-12T12:01:17.166Z,98344.75
2018-09-12T12:03:46.594Z,98342.83
2018-09-12T12:06:17.259Z,98332.08
2018-09-12T12:08:46.618Z,98340.65
2018-09-12T12:11:17.236Z,98317.77
2018-09-12T12:13:46.934Z,98331.72
2018-09-12T12:16:17.412Z,98337.44
2018-09-12T12:18:46.807Z,98341.41
2018-09-12T12:21:17.422Z,98328.14
2018-09-12T12:23:46.818Z,98337.41
2018-09-12T12:26:17.413Z,98326.66
2018-09-12T12:28:46.799Z,98328.17
2018-09-12T12:31:17.390Z,98334.13
2018-09-12T12:33:46.783Z,98326.89
2018-09-12T12:36:17.370Z,98332.22
2018-09-12T12:38:46.778Z,98331.91
2018-09-12T12:41:17.452Z,98326.16
2018-09-12T12:43:46.784Z,98322.60
2018-09-12T12:46:17.433Z,98321.72
2018-09-12T12:48:46.798Z,98320.91
2018-09-12T12:51:17.402Z,98315.14
2018-09-12T12:53:46.782Z,98316.73
2018-09-12T12:56:17.435Z,98313.83
2018-09-12T12:58:46.993Z,98312.38
2018-09-12T13:01:17.433Z,98313.95
2018-09-12T13:03:46.814Z,98310.56
2018-09-12T13:06:17.471Z,98304.62
2018-09-12T13:08:46.835Z,98312.47
2018-09-12T13:11:17.454Z,98302.50
2018-09-12T13:13:46.826Z,98302.19
2018-09-12T13:16:17.538Z,98295.85
2018-09-12T13:18:46.895Z,98297.98
2018-09-12T13:21:17.579Z,98296.94
2018-09-12T13:23:46.924Z,98294.46
2018-09-12T13:26:17.610Z,98288.48
2018-09-12T13:28:46.992Z,98295.93
2018-09-12T13:31:17.470Z,98283.95
2018-09-12T13:33:46.872Z,98288.61
2018-09-12T13:36:17.574Z,98298.52
2018-09-12T13:38:46.946Z,98290.42
2018-09-12T13:41:17.475Z,98276.37
2018-09-12T13:43:46.855Z,98276.88
2018-09-12T13:46:17.459Z,98286.83
2018-09-12T13:48:46.994Z,98287.10
2018-09-12T13:51:17.450Z,98294.51
2018-09-12T13:53:46.830Z,98286.45
2018-09-12T13:56:17.509Z,98291.14
2018-09-12T13:58:46.866Z,98287.22
2018-09-12T14:01:17.478Z,98287.83
2018-09-12T14:03:46.906Z,98299.64
2018-09-12T14:06:17.518Z,98304.87
2018-09-12T14:08:46.923Z,98298.78
2018-09-12T14:11:17.522Z,98292.38
2018-09-12T14:13:47.370Z,98293.53
2018-09-12T14:16:17.527Z,98289.38
2018-09-12T14:18:46.914Z,98283.02
2018-09-12T14:21:17.555Z,98280.45
2018-09-12T14:23:46.938Z,98290.59
2018-09-12T14:26:17.574Z,98282.30
2018-09-12T14:28:47.020Z,98277.65
2018-09-12T14:31:17.621Z,98288.93
2018-09-12T14:33:46.990Z,98293.92
2018-09-12T14:36:17.578Z,98297.32
2018-09-12T14:38:46.966Z,98295.19
2018-09-12T14:41:16.346Z,98294.23
2018-09-12T14:43:45.711Z,98291.37
2018-09-12T14:46:15.339Z,98296.56
2018-09-12T14:48:44.738Z,98289.50
2018-09-12T14:51:14.102Z,98291.67
2018-09-12T14:53:43.526Z,98292.33
2018-09-12T14:56:12.915Z,98284.70
2018-09-12T14:58:42.278Z,98282.44
2018-09-12T15:01:11.811Z,98282.85
2018-09-12T15:03:41.261Z,98277.88
2018-09-12T15:06:10.626Z,98295.98
2018-09-12T15:08:40.023Z,98285.88
2018-09-12T15:11:09.405Z,98284.60
2018-09-12T15:13:45.522Z,98287.52
2018-09-12T15:16:14.914Z,98280.30
2018-09-12T15:18:44.346Z,98290.25
2018-09-12T15:21:13.728Z,98289.92
2018-09-12T15:23:43.161Z,98287.52
2018-09-12T15:26:12.526Z,98280.56
2018-09-12T15:28:41.890Z,98280.74
2018-09-12T15:31:11.306Z,98283.94
2018-09-12T15:33:41.558Z,98281.88
2018-09-12T15:36:10.930Z,98278.93
2018-09-12T15:38:40.314Z,98274.06
2018-09-12T15:41:09.690Z,98276.55
2018-09-12T15:43:39.092Z,98272.73
2018-09-12T15:46:08.490Z,98271.18
2018-09-12T15:48:37.858Z,98272.81
2018-09-12T15:51:07.310Z,98279.53
2018-09-12T15:53:36.738Z,98271.61
2018-09-12T15:56:06.114Z,98276.22
2018-09-12T15:58:35.583Z,98267.34
2018-09-12T16:01:04.986Z,98260.13
2018-09-12T16:03:34.344Z,98256.56
2018-09-12T16:06:03.738Z,98261.99
2018-09-12T16:08:33.106Z,98258.28
2018-09-12T16:11:02.474Z,98259.38
2018-09-12T16:13:31.859Z,98259.19
2018-09-12T16:16:01.253Z,98251.91
2018-09-12T16:18:30.642Z,98254.38
2018-09-12T16:21:00.034Z,98258.70
2018-09-12T16:23:29.405Z,98266.53
2018-09-12T16:25:58.782Z,98269.53
2018-09-12T16:28:28.218Z,98280.94
2018-09-12T16:30:57.578Z,98297.73
2018-09-12T16:33:27.013Z,98303.63
2018-09-12T16:35:56.373Z,98308.64
2018-09-12T16:38:25.758Z,98305.86
2018-09-12T16:40:55.158Z,98307.19
2018-09-12T16:43:24.527Z,98307.23
2018-09-12T16:45:53.910Z,98310.84
2018-09-12T16:48:23.284Z,98310.29
2018-09-12T16:50:52.670Z,98315.47
2018-09-12T16:53:22.054Z,98314.27
2018-09-12T16:55:51.422Z,98319.75
2018-09-12T16:58:20.790Z,98318.48
2018-09-12T17:00:50.183Z,98320.52
2018-09-12T17:03:19.541Z,98318.41
2018-09-12T17:05:48.912Z,98314.86
2018-09-12T17:08:18.297Z,98322.28
2018-09-12T17:10:47.674Z,98318.86
2018-09-12T17:13:17.083Z,98323.73
2018-09-12T17:15:46.651Z,98321.44
2018-09-12T17:18:16.290Z,98320.95
2018-09-12T17:20:45.720Z,98321.05
2018-09-12T17:23:15.090Z,98324.28
2018-09-12T17:25:44.669Z,98325.30
2018-09-12T17:28:14.043Z,98328.61
2018-09-12T17:30:43.443Z,98336.21
2018-09-12T17:33:12.852Z,98340.25
2018-09-12T17:35:42.439Z,98342.86
2018-09-12T17:38:11.822Z,98350.52
2018-09-12T17:40:41.249Z,98354.20
2018-09-12T17:43:10.653Z,98356.72
2018-09-12T17:45:40.057Z,98364.69
2018-09-12T17:48:09.507Z,98362.41
2018-09-12T17:50:39.171Z,98369.00
2018-09-12T17:53:08.577Z,98370.58
2018-09-12T17:55:38.031Z,98375.42
2018-09-12T17:58:07.394Z,98375.72
2018-09-12T18:00:37.384Z,98379.11
2018-09-12T18:03:07.517Z,98383.00
2018-09-12T18:05:37.044Z,98379.76
2018-09-12T18:08:06.594Z,98384.08
2018-09-12T18:10:36.125Z,98391.91
2018-09-12T18:13:05.618Z,98396.06
2018-09-12T18:15:35.106Z,98394.23
2018-09-12T18:18:04.611Z,98395.31
2018-09-12T18:20:34.146Z,98397.27
2018-09-12T18:23:04.215Z,98401.58
2018-09-12T18:25:34.723Z,98406.27
2018-09-12T18:28:04.647Z,98401.05
2018-09-12T18:30:35.001Z,98404.67
2018-09-12T18:33:06.227Z,98408.08
2018-09-12T18:35:38.398Z,98408.79
2018-09-12T18:38:10.633Z,98414.06
2018-09-12T18:40:42.713Z,98415.53
2018-09-12T18:43:14.986Z,98417.92
2018-09-12T18:45:47.324Z,98416.27
2018-09-12T18:48:19.667Z,98417.11
2018-09-12T18:50:52.012Z,98420.41
2018-09-12T18:53:24.140Z,98423.09
2018-09-12T18:55:56.477Z,98420.13
2018-09-12T18:58:28.734Z,98428.52
2018-09-12T19:01:01.050Z,98431.50
2018-09-12T19:03:33.183Z,98438.44
2018-09-12T19:06:05.348Z,98439.70
2018-09-12T19:08:37.722Z,98441.30
2018-09-12T19:11:09.849Z,98439.31
2018-09-12T19:13:42.367Z,98439.97
2018-09-12T19:16:15.401Z,98439.05
2018-09-12T19:18:47.882Z,98355.46
2018-09-12T19:21:20.219Z,98450.25
2018-09-12T19:23:52.691Z,98448.66
2018-09-12T19:26:24.964Z,98440.84
2018-09-12T19:28:57.383Z,98452.01
2018-09-12T19:31:30.655Z,98454.60
2018-09-12T19:34:04.123Z,98460.44
2018-09-12T19:36:38.131Z,98465.79
2018-09-12T19:39:11.700Z,98470.69
2018-09-12T19:41:44.115Z,98467.67
2018-09-12T19:44:17.202Z,98465.67
2018-09-12T19:46:49.502Z,98470.80
2018-09-12T19:49:21.764Z,98481.53
2018-09-12T19:51:54.094Z,98469.00
2018-09-12T19:54:26.279Z,98475.69
2018-09-12T19:56:58.687Z,98483.50
2018-09-12T19:59:30.943Z,98481.81
2018-09-12T20:02:03.180Z,98476.02
2018-09-12T20:04:35.482Z,98471.59
2018-09-12T20:07:07.714Z,98471.05
2018-09-12T20:09:40.123Z,98474.27
2018-09-12T20:12:11.916Z,98480.30
2018-09-12T20:14:44.135Z,98481.06
2018-09-12T20:17:16.201Z,98479.31
2018-09-12T20:19:48.282Z,98481.58
2018-09-12T20:22:20.034Z,98483.41
2018-09-12T20:24:50.612Z,98485.05
2018-09-12T20:27:20.782Z,98488.35
2018-09-12T20:29:51.129Z,98492.87
2018-09-12T20:32:21.966Z,98489.64
2018-09-12T20:34:52.949Z,98490.33
2018-09-12T20:37:22.790Z,98493.14
2018-09-12T20:39:52.280Z,98489.95
2018-09-12T20:42:21.777Z,98501.86
2018-09-12T20:44:51.265Z,98499.59
2018-09-12T20:47:20.617Z,98495.95
2018-09-12T20:49:50.034Z,98496.55
2018-09-12T20:52:19.418Z,98505.17
2018-09-12T20:54:48.782Z,98497.41
2018-09-12T20:57:18.255Z,98496.16
2018-09-12T20:59:47.644Z,98493.80
2018-09-12T21:02:17.015Z,98494.19
2018-09-12T21:04:46.406Z,98497.80
2018-09-12T21:07:15.788Z,98504.50
2018-09-12T21:09:45.150Z,98499.25
2018-09-12T21:12:14.572Z,98502.66
2018-09-12T21:14:43.962Z,98501.36
2018-09-12T21:17:13.371Z,98504.80
2018-09-12T21:19:49.378Z,98509.38
2018-09-12T21:22:18.754Z,98497.78
2018-09-12T21:24:48.106Z,98500.72
2018-09-12T21:27:17.494Z,98488.06
2018-09-12T21:29:46.848Z,98498.87
2018-09-12T21:32:16.233Z,98506.40
2018-09-12T21:34:45.683Z,98507.45
2018-09-12T21:37:15.050Z,98514.06
2018-09-12T21:39:44.438Z,98513.02
2018-09-12T21:42:13.885Z,98512.63
2018-09-12T21:44:43.256Z,98506.16
2018-09-12T21:47:13.406Z,98513.39
2018-09-12T21:49:42.887Z,98511.48
2018-09-12T21:52:12.300Z,98510.62
2018-09-12T21:54:41.732Z,98507.84
2018-09-12T21:57:11.082Z,98508.41
2018-09-12T21:59:40.467Z,98513.09
2018-09-12T22:02:09.846Z,98514.50
2018-09-12T22:04:39.245Z,98504.59
2018-09-12T22:07:08.737Z,98509.98
2018-09-12T22:09:38.110Z,98498.38
2018-09-12T22:12:07.493Z,98492.23
2018-09-12T22:14:36.910Z,98489.77
2018-09-12T22:17:06.289Z,98489.45
2018-09-12T22:19:35.765Z,98487.33
2018-09-12T22:22:05.190Z,98489.14
2018-09-12T22:24:34.651Z,98491.34
2018-09-12T22:27:04.090Z,98489.08
2018-09-12T22:29:33.485Z,98490.28
2018-09-12T22:32:02.862Z,98488.98
2018-09-12T22:34:32.210Z,98486.59
2018-09-12T22:37:01.686Z,98486.66
2018-09-12T22:39:31.098Z,98470.61
2018-09-12T22:42:00.465Z,98487.52
2018-09-12T22:44:29.934Z,98484.34
2018-09-12T22:46:59.310Z,98499.03
2018-09-12T22:49:28.677Z,98499.86
2018-09-12T22:51:58.357Z,98496.68
2018-09-12T22:54:27.840Z,98495.48
2018-09-12T22:56:57.421Z,98495.80
2018-09-12T22:59:26.908Z,98491.01
2018-09-12T23:01:56.438Z,98494.06
2018-09-12T23:04:25.965Z,98497.88
2018-09-12T23:06:55.447Z,98499.16
2018-09-12T23:09:24.968Z,98500.84
2018-09-12T23:11:54.457Z,98493.39
2018-09-12T23:14:23.994Z,98486.91
2018-09-12T23:16:53.539Z,98381.23
2018-09-12T23:19:22.990Z,98480.98
2018-09-12T23:21:52.505Z,98482.63
2018-09-12T23:24:22.066Z,98487.62
2018-09-12T23:26:51.631Z,98479.02
2018-09-12T23:29:21.171Z,98472.78
2018-09-12T23:31:50.658Z,98477.27
2018-09-12T23:34:20.198Z,98475.97
2018-09-12T23:36:49.703Z,98474.22
2018-09-12T23:39:19.233Z,98468.78
2018-09-12T23:41:48.789Z,98472.60
2018-09-12T23:44:18.327Z,98465.11
2018-09-12T23:46:47.820Z,98467.49
2018-09-12T23:49:17.350Z,98456.95
2018-09-12T23:51:46.884Z,98454.44
2018-09-12T23:54:16.481Z,98448.28
2018-09-12T23:56:45.978Z,98361.89
2018-09-12T23:59:15.608Z,98460.69
